sensor_id;sensor_type;location;lat;lon;timestamp;P1;durP1;ratioP1;P2;durP2;ratioP2
68583;SDS011;55557;49.220;11.150;2023-02-05T00:01:17;5.23;;;3.57;;
68583;SDS011;55557;49.220;11.150;2023-02-05T00:03:43;8.03;;;4.50;;
68583;SDS011;55557;49.220;11.150;2023-02-05T00:06:09;5.47;;;4.10;;
68583;SDS011;55557;49.220;11.150;2023-02-05T00:08:35;5.73;;;4.03;;
68583;SDS011;55557;49.220;11.150;2023-02-05T00:11:01;4.70;;;3.30;;
68583;SDS011;55557;49.220;11.150;2023-02-05T00:13:33;5.67;;;3.47;;
68583;SDS011;55557;49.220;11.150;2023-02-05T00:15:59;6.23;;;3.83;;
68583;SDS011;55557;49.220;11.150;2023-02-05T00:18:25;4.90;;;3.70;;
68583;SDS011;55557;49.220;11.150;2023-02-05T00:20:51;4.90;;;3.90;;
68583;SDS011;55557;49.220;11.150;2023-02-05T00:23:17;5.00;;;3.33;;
68583;SDS011;55557;49.220;11.150;2023-02-05T00:25:43;6.97;;;2.97;;
68583;SDS011;55557;49.220;11.150;2023-02-05T00:28:09;4.83;;;3.20;;
68583;SDS011;55557;49.220;11.150;2023-02-05T00:30:35;6.03;;;3.97;;
68583;SDS011;55557;49.220;11.150;2023-02-05T00:33:01;5.47;;;3.63;;
68583;SDS011;55557;49.220;11.150;2023-02-05T00:35:27;6.63;;;4.03;;
68583;SDS011;55557;49.220;11.150;2023-02-05T00:37:53;6.07;;;4.13;;
68583;SDS011;55557;49.220;11.150;2023-02-05T00:40:20;5.43;;;3.90;;
68583;SDS011;55557;49.220;11.150;2023-02-05T00:42:46;7.43;;;4.43;;
68583;SDS011;55557;49.220;11.150;2023-02-05T00:45:12;5.87;;;3.80;;
68583;SDS011;55557;49.220;11.150;2023-02-05T00:47:38;6.97;;;4.60;;
68583;SDS011;55557;49.220;11.150;2023-02-05T00:50:04;7.23;;;4.13;;
68583;SDS011;55557;49.220;11.150;2023-02-05T00:52:30;11.90;;;4.30;;
68583;SDS011;55557;49.220;11.150;2023-02-05T00:54:56;5.03;;;3.90;;
68583;SDS011;55557;49.220;11.150;2023-02-05T00:57:22;4.40;;;3.47;;
68583;SDS011;55557;49.220;11.150;2023-02-05T00:59:49;5.07;;;3.73;;
68583;SDS011;55557;49.220;11.150;2023-02-05T01:02:16;4.80;;;3.57;;
68583;SDS011;55557;49.220;11.150;2023-02-05T01:04:47;6.77;;;4.40;;
68583;SDS011;55557;49.220;11.150;2023-02-05T01:07:13;7.47;;;4.83;;
68583;SDS011;55557;49.220;11.150;2023-02-05T01:09:39;6.47;;;4.53;;
68583;SDS011;55557;49.220;11.150;2023-02-05T01:12:05;6.30;;;4.27;;
68583;SDS011;55557;49.220;11.150;2023-02-05T01:14:33;9.37;;;5.10;;
68583;SDS011;55557;49.220;11.150;2023-02-05T01:16:59;5.73;;;4.43;;
68583;SDS011;55557;49.220;11.150;2023-02-05T01:19:25;5.77;;;4.37;;
68583;SDS011;55557;49.220;11.150;2023-02-05T01:21:51;6.07;;;3.73;;
68583;SDS011;55557;49.220;11.150;2023-02-05T01:24:17;6.10;;;4.63;;
68583;SDS011;55557;49.220;11.150;2023-02-05T01:26:43;5.80;;;4.43;;
68583;SDS011;55557;49.220;11.150;2023-02-05T01:29:09;7.63;;;4.57;;
68583;SDS011;55557;49.220;11.150;2023-02-05T01:31:35;6.07;;;4.30;;
68583;SDS011;55557;49.220;11.150;2023-02-05T01:34:01;6.87;;;4.57;;
68583;SDS011;55557;49.220;11.150;2023-02-05T01:36:27;10.77;;;5.70;;
68583;SDS011;55557;49.220;11.150;2023-02-05T01:38:53;5.50;;;4.50;;
68583;SDS011;55557;49.220;11.150;2023-02-05T01:41:19;6.60;;;4.87;;
68583;SDS011;55557;49.220;11.150;2023-02-05T01:46:30;7.53;;;4.73;;
68583;SDS011;55557;49.220;11.150;2023-02-05T01:48:56;8.17;;;4.67;;
68583;SDS011;55557;49.220;11.150;2023-02-05T01:51:23;5.77;;;4.23;;
68583;SDS011;55557;49.220;11.150;2023-02-05T01:53:49;5.63;;;4.30;;
68583;SDS011;55557;49.220;11.150;2023-02-05T01:56:18;6.73;;;3.80;;
68583;SDS011;55557;49.220;11.150;2023-02-05T01:58:49;6.10;;;4.83;;
68583;SDS011;55557;49.220;11.150;2023-02-05T02:01:16;6.47;;;4.83;;
68583;SDS011;55557;49.220;11.150;2023-02-05T02:03:42;8.67;;;5.17;;
68583;SDS011;55557;49.220;11.150;2023-02-05T02:06:08;6.83;;;4.77;;
68583;SDS011;55557;49.220;11.150;2023-02-05T02:08:34;6.73;;;4.50;;
68583;SDS011;55557;49.220;11.150;2023-02-05T02:11:01;7.80;;;4.67;;
68583;SDS011;55557;49.220;11.150;2023-02-05T02:13:28;6.97;;;4.93;;
68583;SDS011;55557;49.220;11.150;2023-02-05T02:15:56;6.13;;;4.57;;
68583;SDS011;55557;49.220;11.150;2023-02-05T02:18:23;6.10;;;4.13;;
68583;SDS011;55557;49.220;11.150;2023-02-05T02:23:26;7.10;;;4.13;;
68583;SDS011;55557;49.220;11.150;2023-02-05T02:28:32;6.00;;;4.47;;
68583;SDS011;55557;49.220;11.150;2023-02-05T02:33:43;5.30;;;4.47;;
68583;SDS011;55557;49.220;11.150;2023-02-05T02:38:38;6.97;;;4.63;;
68583;SDS011;55557;49.220;11.150;2023-02-05T02:41:06;5.90;;;4.53;;
68583;SDS011;55557;49.220;11.150;2023-02-05T02:43:51;6.13;;;4.30;;
68583;SDS011;55557;49.220;11.150;2023-02-05T02:46:39;6.47;;;4.37;;
68583;SDS011;55557;49.220;11.150;2023-02-05T02:49:08;7.00;;;4.40;;
68583;SDS011;55557;49.220;11.150;2023-02-05T02:51:35;6.57;;;4.40;;
68583;SDS011;55557;49.220;11.150;2023-02-05T02:54:05;6.60;;;4.73;;
68583;SDS011;55557;49.220;11.150;2023-02-05T02:56:31;5.33;;;4.27;;
68583;SDS011;55557;49.220;11.150;2023-02-05T02:58:59;5.50;;;4.13;;
68583;SDS011;55557;49.220;11.150;2023-02-05T03:01:27;6.50;;;4.73;;
68583;SDS011;55557;49.220;11.150;2023-02-05T03:03:57;7.23;;;4.27;;
68583;SDS011;55557;49.220;11.150;2023-02-05T03:06:24;6.30;;;4.43;;
68583;SDS011;55557;49.220;11.150;2023-02-05T03:08:55;7.07;;;4.43;;
68583;SDS011;55557;49.220;11.150;2023-02-05T03:11:21;5.87;;;4.63;;
68583;SDS011;55557;49.220;11.150;2023-02-05T03:13:47;5.30;;;4.30;;
68583;SDS011;55557;49.220;11.150;2023-02-05T03:16:14;9.33;;;5.03;;
68583;SDS011;55557;49.220;11.150;2023-02-05T03:18:40;5.53;;;4.17;;
68583;SDS011;55557;49.220;11.150;2023-02-05T03:21:08;5.03;;;4.10;;
68583;SDS011;55557;49.220;11.150;2023-02-05T03:23:36;5.33;;;4.80;;
68583;SDS011;55557;49.220;11.150;2023-02-05T03:26:02;4.63;;;3.83;;
68583;SDS011;55557;49.220;11.150;2023-02-05T03:28:28;4.57;;;3.70;;
68583;SDS011;55557;49.220;11.150;2023-02-05T03:48:17;5.13;;;4.30;;
68583;SDS011;55557;49.220;11.150;2023-02-05T03:50:48;6.73;;;4.07;;
68583;SDS011;55557;49.220;11.150;2023-02-05T03:53:26;5.70;;;4.20;;
68583;SDS011;55557;49.220;11.150;2023-02-05T03:55:59;5.10;;;4.10;;
68583;SDS011;55557;49.220;11.150;2023-02-05T03:58:40;5.40;;;4.20;;
68583;SDS011;55557;49.220;11.150;2023-02-05T04:01:07;5.87;;;4.53;;
68583;SDS011;55557;49.220;11.150;2023-02-05T04:03:34;4.80;;;4.20;;
68583;SDS011;55557;49.220;11.150;2023-02-05T04:06:00;5.87;;;4.27;;
68583;SDS011;55557;49.220;11.150;2023-02-05T04:08:26;5.77;;;3.87;;
68583;SDS011;55557;49.220;11.150;2023-02-05T04:10:52;6.13;;;3.87;;
68583;SDS011;55557;49.220;11.150;2023-02-05T04:13:18;7.53;;;4.10;;
68583;SDS011;55557;49.220;11.150;2023-02-05T04:15:44;6.40;;;4.00;;
68583;SDS011;55557;49.220;11.150;2023-02-05T04:18:13;9.60;;;4.70;;
68583;SDS011;55557;49.220;11.150;2023-02-05T04:20:39;6.47;;;4.17;;
68583;SDS011;55557;49.220;11.150;2023-02-05T04:23:05;5.90;;;4.33;;
68583;SDS011;55557;49.220;11.150;2023-02-05T04:25:31;8.67;;;4.30;;
68583;SDS011;55557;49.220;11.150;2023-02-05T04:27:56;8.03;;;4.47;;
68583;SDS011;55557;49.220;11.150;2023-02-05T04:30:22;7.83;;;4.87;;
68583;SDS011;55557;49.220;11.150;2023-02-05T04:32:48;5.43;;;4.30;;
68583;SDS011;55557;49.220;11.150;2023-02-05T04:35:14;6.13;;;4.17;;
68583;SDS011;55557;49.220;11.150;2023-02-05T04:37:40;8.30;;;4.80;;
68583;SDS011;55557;49.220;11.150;2023-02-05T04:40:07;7.40;;;4.90;;
68583;SDS011;55557;49.220;11.150;2023-02-05T04:42:33;5.17;;;4.17;;
68583;SDS011;55557;49.220;11.150;2023-02-05T04:44:59;7.83;;;4.70;;
68583;SDS011;55557;49.220;11.150;2023-02-05T04:47:29;6.33;;;4.70;;
68583;SDS011;55557;49.220;11.150;2023-02-05T04:49:55;9.23;;;4.87;;
68583;SDS011;55557;49.220;11.150;2023-02-05T04:52:20;10.43;;;5.37;;
68583;SDS011;55557;49.220;11.150;2023-02-05T04:54:46;9.83;;;4.70;;
68583;SDS011;55557;49.220;11.150;2023-02-05T04:57:12;8.40;;;4.67;;
68583;SDS011;55557;49.220;11.150;2023-02-05T04:59:38;6.30;;;4.80;;
68583;SDS011;55557;49.220;11.150;2023-02-05T05:02:04;9.47;;;4.87;;
68583;SDS011;55557;49.220;11.150;2023-02-05T05:04:30;8.50;;;4.50;;
68583;SDS011;55557;49.220;11.150;2023-02-05T05:06:56;7.67;;;5.60;;
68583;SDS011;55557;49.220;11.150;2023-02-05T05:09:22;8.90;;;5.00;;
68583;SDS011;55557;49.220;11.150;2023-02-05T05:11:52;5.83;;;4.40;;
68583;SDS011;55557;49.220;11.150;2023-02-05T05:14:18;5.97;;;3.87;;
68583;SDS011;55557;49.220;11.150;2023-02-05T05:16:44;8.83;;;4.87;;
68583;SDS011;55557;49.220;11.150;2023-02-05T05:19:10;8.17;;;5.13;;
68583;SDS011;55557;49.220;11.150;2023-02-05T05:21:36;6.33;;;4.80;;
68583;SDS011;55557;49.220;11.150;2023-02-05T05:24:02;7.97;;;4.20;;
68583;SDS011;55557;49.220;11.150;2023-02-05T05:26:29;7.53;;;4.57;;
68583;SDS011;55557;49.220;11.150;2023-02-05T05:28:55;6.70;;;4.50;;
68583;SDS011;55557;49.220;11.150;2023-02-05T05:31:21;9.40;;;5.20;;
68583;SDS011;55557;49.220;11.150;2023-02-05T05:33:48;10.27;;;4.77;;
68583;SDS011;55557;49.220;11.150;2023-02-05T05:36:14;6.17;;;4.37;;
68583;SDS011;55557;49.220;11.150;2023-02-05T05:38:40;5.60;;;4.30;;
68583;SDS011;55557;49.220;11.150;2023-02-05T05:41:06;11.97;;;4.70;;
68583;SDS011;55557;49.220;11.150;2023-02-05T05:43:52;4.77;;;3.83;;
68583;SDS011;55557;49.220;11.150;2023-02-05T05:46:20;6.43;;;4.30;;
68583;SDS011;55557;49.220;11.150;2023-02-05T05:48:52;6.63;;;4.13;;
68583;SDS011;55557;49.220;11.150;2023-02-05T05:51:19;6.30;;;4.00;;
68583;SDS011;55557;49.220;11.150;2023-02-05T05:53:45;6.60;;;4.37;;
68583;SDS011;55557;49.220;11.150;2023-02-05T05:56:11;4.57;;;3.63;;
68583;SDS011;55557;49.220;11.150;2023-02-05T05:58:37;5.63;;;4.00;;
68583;SDS011;55557;49.220;11.150;2023-02-05T06:01:04;8.77;;;4.33;;
68583;SDS011;55557;49.220;11.150;2023-02-05T06:03:30;8.60;;;4.70;;
68583;SDS011;55557;49.220;11.150;2023-02-05T06:05:58;6.27;;;4.37;;
68583;SDS011;55557;49.220;11.150;2023-02-05T06:08:25;4.87;;;4.20;;
68583;SDS011;55557;49.220;11.150;2023-02-05T06:10:51;6.27;;;3.40;;
68583;SDS011;55557;49.220;11.150;2023-02-05T06:13:17;6.23;;;3.60;;
68583;SDS011;55557;49.220;11.150;2023-02-05T06:15:43;5.30;;;3.53;;
68583;SDS011;55557;49.220;11.150;2023-02-05T06:18:09;5.73;;;3.67;;
68583;SDS011;55557;49.220;11.150;2023-02-05T06:20:34;6.30;;;4.20;;
68583;SDS011;55557;49.220;11.150;2023-02-05T06:23:00;7.27;;;3.93;;
68583;SDS011;55557;49.220;11.150;2023-02-05T06:25:26;5.27;;;3.60;;
68583;SDS011;55557;49.220;11.150;2023-02-05T06:27:52;5.37;;;4.30;;
68583;SDS011;55557;49.220;11.150;2023-02-05T06:30:18;4.47;;;3.47;;
68583;SDS011;55557;49.220;11.150;2023-02-05T06:32:44;7.97;;;4.43;;
68583;SDS011;55557;49.220;11.150;2023-02-05T06:35:10;5.87;;;3.57;;
68583;SDS011;55557;49.220;11.150;2023-02-05T06:37:36;6.43;;;4.03;;
68583;SDS011;55557;49.220;11.150;2023-02-05T06:40:02;5.97;;;4.00;;
68583;SDS011;55557;49.220;11.150;2023-02-05T06:42:29;6.03;;;3.80;;
68583;SDS011;55557;49.220;11.150;2023-02-05T06:44:55;5.23;;;4.07;;
68583;SDS011;55557;49.220;11.150;2023-02-05T06:47:21;18.23;;;6.70;;
68583;SDS011;55557;49.220;11.150;2023-02-05T06:49:47;14.33;;;7.17;;
68583;SDS011;55557;49.220;11.150;2023-02-05T06:52:13;15.57;;;8.87;;
68583;SDS011;55557;49.220;11.150;2023-02-05T06:54:40;13.63;;;7.33;;
68583;SDS011;55557;49.220;11.150;2023-02-05T06:57:07;10.67;;;5.57;;
68583;SDS011;55557;49.220;11.150;2023-02-05T06:59:33;7.47;;;5.13;;
68583;SDS011;55557;49.220;11.150;2023-02-05T07:01:59;7.33;;;5.50;;
68583;SDS011;55557;49.220;11.150;2023-02-05T07:04:25;12.23;;;5.57;;
68583;SDS011;55557;49.220;11.150;2023-02-05T07:06:54;7.87;;;5.13;;
68583;SDS011;55557;49.220;11.150;2023-02-05T07:09:20;6.47;;;4.73;;
68583;SDS011;55557;49.220;11.150;2023-02-05T07:11:47;7.37;;;4.60;;
68583;SDS011;55557;49.220;11.150;2023-02-05T07:14:20;7.17;;;4.77;;
68583;SDS011;55557;49.220;11.150;2023-02-05T07:16:47;11.67;;;5.07;;
68583;SDS011;55557;49.220;11.150;2023-02-05T07:19:15;6.70;;;4.10;;
68583;SDS011;55557;49.220;11.150;2023-02-05T07:21:48;7.57;;;4.63;;
68583;SDS011;55557;49.220;11.150;2023-02-05T07:24:14;8.70;;;5.60;;
68583;SDS011;55557;49.220;11.150;2023-02-05T07:26:40;10.40;;;5.90;;
68583;SDS011;55557;49.220;11.150;2023-02-05T07:29:09;13.40;;;6.87;;
68583;SDS011;55557;49.220;11.150;2023-02-05T07:31:35;14.03;;;6.73;;
68583;SDS011;55557;49.220;11.150;2023-02-05T07:34:01;12.13;;;6.93;;
68583;SDS011;55557;49.220;11.150;2023-02-05T07:36:27;16.85;;;8.40;;
68583;SDS011;55557;49.220;11.150;2023-02-05T07:38:53;16.17;;;8.10;;
68583;SDS011;55557;49.220;11.150;2023-02-05T07:41:19;22.90;;;9.93;;
68583;SDS011;55557;49.220;11.150;2023-02-05T07:43:45;25.37;;;12.17;;
68583;SDS011;55557;49.220;11.150;2023-02-05T07:46:15;39.93;;;16.00;;
68583;SDS011;55557;49.220;11.150;2023-02-05T07:48:41;32.87;;;15.37;;
68583;SDS011;55557;49.220;11.150;2023-02-05T07:51:07;22.83;;;10.93;;
68583;SDS011;55557;49.220;11.150;2023-02-05T07:53:33;14.60;;;7.67;;
68583;SDS011;55557;49.220;11.150;2023-02-05T07:56:02;13.83;;;8.40;;
68583;SDS011;55557;49.220;11.150;2023-02-05T07:58:28;13.50;;;8.47;;
68583;SDS011;55557;49.220;11.150;2023-02-05T08:00:58;10.53;;;6.97;;
68583;SDS011;55557;49.220;11.150;2023-02-05T08:03:24;9.77;;;6.50;;
68583;SDS011;55557;49.220;11.150;2023-02-05T08:05:50;10.47;;;6.33;;
68583;SDS011;55557;49.220;11.150;2023-02-05T08:08:16;18.90;;;10.60;;
68583;SDS011;55557;49.220;11.150;2023-02-05T08:10:42;13.67;;;8.33;;
68583;SDS011;55557;49.220;11.150;2023-02-05T08:13:08;12.90;;;6.70;;
68583;SDS011;55557;49.220;11.150;2023-02-05T08:15:36;14.30;;;9.10;;
68583;SDS011;55557;49.220;11.150;2023-02-05T08:18:02;50.77;;;19.73;;
68583;SDS011;55557;49.220;11.150;2023-02-05T08:20:28;40.67;;;16.40;;
68583;SDS011;55557;49.220;11.150;2023-02-05T08:22:54;29.60;;;10.60;;
68583;SDS011;55557;49.220;11.150;2023-02-05T08:25:20;24.83;;;13.60;;
68583;SDS011;55557;49.220;11.150;2023-02-05T08:27:46;14.17;;;8.23;;
68583;SDS011;55557;49.220;11.150;2023-02-05T08:30:14;10.90;;;7.37;;
68583;SDS011;55557;49.220;11.150;2023-02-05T08:32:40;62.33;;;26.17;;
68583;SDS011;55557;49.220;11.150;2023-02-05T08:35:07;57.43;;;21.63;;
68583;SDS011;55557;49.220;11.150;2023-02-05T08:37:33;13.30;;;7.77;;
68583;SDS011;55557;49.220;11.150;2023-02-05T08:40:00;7.90;;;5.20;;
68583;SDS011;55557;49.220;11.150;2023-02-05T08:42:26;6.80;;;5.03;;
68583;SDS011;55557;49.220;11.150;2023-02-05T08:44:52;10.27;;;6.17;;
68583;SDS011;55557;49.220;11.150;2023-02-05T08:47:22;10.13;;;6.00;;
68583;SDS011;55557;49.220;11.150;2023-02-05T08:49:48;10.70;;;6.47;;
68583;SDS011;55557;49.220;11.150;2023-02-05T08:55:17;14.93;;;8.60;;
68583;SDS011;55557;49.220;11.150;2023-02-05T08:57:43;20.30;;;10.50;;
68583;SDS011;55557;49.220;11.150;2023-02-05T09:00:10;18.63;;;11.93;;
68583;SDS011;55557;49.220;11.150;2023-02-05T09:02:36;11.67;;;7.70;;
68583;SDS011;55557;49.220;11.150;2023-02-05T09:05:03;11.00;;;6.90;;
68583;SDS011;55557;49.220;11.150;2023-02-05T09:07:29;11.93;;;7.90;;
68583;SDS011;55557;49.220;11.150;2023-02-05T09:09:57;9.73;;;7.50;;
68583;SDS011;55557;49.220;11.150;2023-02-05T09:12:23;8.83;;;7.43;;
68583;SDS011;55557;49.220;11.150;2023-02-05T09:14:49;8.47;;;6.40;;
68583;SDS011;55557;49.220;11.150;2023-02-05T09:17:15;10.37;;;6.43;;
68583;SDS011;55557;49.220;11.150;2023-02-05T09:19:42;9.07;;;6.40;;
68583;SDS011;55557;49.220;11.150;2023-02-05T09:22:08;8.13;;;5.87;;
68583;SDS011;55557;49.220;11.150;2023-02-05T09:24:35;10.27;;;6.40;;
68583;SDS011;55557;49.220;11.150;2023-02-05T09:27:01;10.17;;;6.00;;
68583;SDS011;55557;49.220;11.150;2023-02-05T09:29:28;10.80;;;6.13;;
68583;SDS011;55557;49.220;11.150;2023-02-05T09:31:54;9.37;;;6.47;;
68583;SDS011;55557;49.220;11.150;2023-02-05T09:34:20;9.87;;;6.33;;
68583;SDS011;55557;49.220;11.150;2023-02-05T09:36:46;11.37;;;7.47;;
68583;SDS011;55557;49.220;11.150;2023-02-05T09:39:12;17.43;;;8.10;;
68583;SDS011;55557;49.220;11.150;2023-02-05T09:46:38;20.60;;;10.03;;
68583;SDS011;55557;49.220;11.150;2023-02-05T09:49:16;14.57;;;9.20;;
68583;SDS011;55557;49.220;11.150;2023-02-05T09:51:43;8.33;;;5.83;;
68583;SDS011;55557;49.220;11.150;2023-02-05T09:54:12;7.17;;;5.70;;
68583;SDS011;55557;49.220;11.150;2023-02-05T09:56:40;6.60;;;5.23;;
68583;SDS011;55557;49.220;11.150;2023-02-05T09:59:08;7.97;;;5.77;;
68583;SDS011;55557;49.220;11.150;2023-02-05T10:01:57;11.60;;;5.40;;
68583;SDS011;55557;49.220;11.150;2023-02-05T10:04:22;6.23;;;4.00;;
68583;SDS011;55557;49.220;11.150;2023-02-05T10:11:48;4.83;;;3.93;;
68583;SDS011;55557;49.220;11.150;2023-02-05T10:14:24;6.40;;;4.17;;
68583;SDS011;55557;49.220;11.150;2023-02-05T10:19:53;7.03;;;3.67;;
68583;SDS011;55557;49.220;11.150;2023-02-05T10:22:39;6.93;;;3.83;;
68583;SDS011;55557;49.220;11.150;2023-02-05T10:32:58;6.17;;;4.30;;
68583;SDS011;55557;49.220;11.150;2023-02-05T10:37:59;4.10;;;3.70;;
68583;SDS011;55557;49.220;11.150;2023-02-05T10:40:36;5.90;;;3.60;;
68583;SDS011;55557;49.220;11.150;2023-02-05T10:43:20;5.17;;;3.10;;
68583;SDS011;55557;49.220;11.150;2023-02-05T10:45:48;4.37;;;3.63;;
68583;SDS011;55557;49.220;11.150;2023-02-05T10:48:24;5.00;;;3.50;;
68583;SDS011;55557;49.220;11.150;2023-02-05T10:53:27;3.87;;;3.10;;
68583;SDS011;55557;49.220;11.150;2023-02-05T10:55:55;3.27;;;2.43;;
68583;SDS011;55557;49.220;11.150;2023-02-05T10:58:27;4.00;;;3.00;;
68583;SDS011;55557;49.220;11.150;2023-02-05T11:00:57;4.43;;;3.33;;
68583;SDS011;55557;49.220;11.150;2023-02-05T11:03:23;4.53;;;3.40;;
68583;SDS011;55557;49.220;11.150;2023-02-05T11:05:49;4.20;;;3.30;;
68583;SDS011;55557;49.220;11.150;2023-02-05T11:08:32;3.50;;;2.80;;
68583;SDS011;55557;49.220;11.150;2023-02-05T11:10:58;6.17;;;3.20;;
68583;SDS011;55557;49.220;11.150;2023-02-05T11:13:24;5.00;;;2.50;;
68583;SDS011;55557;49.220;11.150;2023-02-05T11:15:59;2.87;;;2.30;;
68583;SDS011;55557;49.220;11.150;2023-02-05T11:18:28;3.13;;;2.80;;
68583;SDS011;55557;49.220;11.150;2023-02-05T11:20:56;3.83;;;2.97;;
68583;SDS011;55557;49.220;11.150;2023-02-05T11:23:23;4.00;;;3.10;;
68583;SDS011;55557;49.220;11.150;2023-02-05T11:25:50;3.30;;;2.97;;
68583;SDS011;55557;49.220;11.150;2023-02-05T11:28:22;4.40;;;3.60;;
68583;SDS011;55557;49.220;11.150;2023-02-05T11:30:51;4.07;;;3.50;;
68583;SDS011;55557;49.220;11.150;2023-02-05T11:38:29;6.00;;;3.20;;
68583;SDS011;55557;49.220;11.150;2023-02-05T11:40:59;4.27;;;3.40;;
68583;SDS011;55557;49.220;11.150;2023-02-05T11:45:55;6.40;;;3.90;;
68583;SDS011;55557;49.220;11.150;2023-02-05T11:50:47;6.27;;;4.63;;
68583;SDS011;55557;49.220;11.150;2023-02-05T11:53:14;5.67;;;3.90;;
68583;SDS011;55557;49.220;11.150;2023-02-05T11:55:41;5.43;;;3.63;;
68583;SDS011;55557;49.220;11.150;2023-02-05T11:58:21;5.63;;;3.43;;
68583;SDS011;55557;49.220;11.150;2023-02-05T12:00:51;4.43;;;3.40;;
68583;SDS011;55557;49.220;11.150;2023-02-05T12:03:18;4.67;;;3.30;;
68583;SDS011;55557;49.220;11.150;2023-02-05T12:05:51;5.10;;;2.50;;
68583;SDS011;55557;49.220;11.150;2023-02-05T12:11:06;3.47;;;2.70;;
68583;SDS011;55557;49.220;11.150;2023-02-05T12:21:18;6.43;;;3.50;;
68583;SDS011;55557;49.220;11.150;2023-02-05T12:23:58;3.87;;;3.03;;
68583;SDS011;55557;49.220;11.150;2023-02-05T12:26:30;6.57;;;2.90;;
68583;SDS011;55557;49.220;11.150;2023-02-05T12:36:44;5.60;;;2.50;;
68583;SDS011;55557;49.220;11.150;2023-02-05T12:44:39;4.80;;;2.67;;
68583;SDS011;55557;49.220;11.150;2023-02-05T12:54:50;2.60;;;2.30;;
68583;SDS011;55557;49.220;11.150;2023-02-05T12:57:19;3.80;;;2.37;;
68583;SDS011;55557;49.220;11.150;2023-02-05T13:00:03;4.70;;;2.87;;
68583;SDS011;55557;49.220;11.150;2023-02-05T13:02:33;4.67;;;2.80;;
68583;SDS011;55557;49.220;11.150;2023-02-05T13:05:17;3.40;;;2.53;;
68583;SDS011;55557;49.220;11.150;2023-02-05T13:07:46;3.03;;;2.50;;
68583;SDS011;55557;49.220;11.150;2023-02-05T13:10:17;3.60;;;2.90;;
68583;SDS011;55557;49.220;11.150;2023-02-05T13:12:47;3.37;;;2.90;;
68583;SDS011;55557;49.220;11.150;2023-02-05T13:15:21;4.93;;;2.70;;
68583;SDS011;55557;49.220;11.150;2023-02-05T13:17:58;3.27;;;2.60;;
68583;SDS011;55557;49.220;11.150;2023-02-05T13:20:39;3.20;;;2.90;;
68583;SDS011;55557;49.220;11.150;2023-02-05T13:23:25;2.40;;;2.17;;
68583;SDS011;55557;49.220;11.150;2023-02-05T13:26:11;6.17;;;2.63;;
68583;SDS011;55557;49.220;11.150;2023-02-05T13:29:01;4.73;;;2.97;;
68583;SDS011;55557;49.220;11.150;2023-02-05T13:31:35;4.23;;;3.37;;
68583;SDS011;55557;49.220;11.150;2023-02-05T13:34:04;2.63;;;2.43;;
68583;SDS011;55557;49.220;11.150;2023-02-05T13:41:55;3.33;;;2.60;;
68583;SDS011;55557;49.220;11.150;2023-02-05T13:44:46;3.00;;;2.30;;
68583;SDS011;55557;49.220;11.150;2023-02-05T13:52:56;2.80;;;2.10;;
68583;SDS011;55557;49.220;11.150;2023-02-05T13:55:31;2.87;;;2.57;;
68583;SDS011;55557;49.220;11.150;2023-02-05T13:58:08;3.07;;;2.77;;
68583;SDS011;55557;49.220;11.150;2023-02-05T14:00:36;4.13;;;2.73;;
68583;SDS011;55557;49.220;11.150;2023-02-05T14:03:03;2.93;;;2.47;;
68583;SDS011;55557;49.220;11.150;2023-02-05T14:05:34;4.83;;;3.13;;
68583;SDS011;55557;49.220;11.150;2023-02-05T14:08:01;3.87;;;2.43;;
68583;SDS011;55557;49.220;11.150;2023-02-05T14:10:38;11.53;;;5.83;;
68583;SDS011;55557;49.220;11.150;2023-02-05T14:15:43;15.47;;;7.07;;
68583;SDS011;55557;49.220;11.150;2023-02-05T14:18:10;12.17;;;6.57;;
68583;SDS011;55557;49.220;11.150;2023-02-05T14:20:38;12.10;;;7.33;;
68583;SDS011;55557;49.220;11.150;2023-02-05T14:23:11;20.60;;;12.37;;
68583;SDS011;55557;49.220;11.150;2023-02-05T14:30:48;14.73;;;7.87;;
68583;SDS011;55557;49.220;11.150;2023-02-05T14:35:56;14.30;;;8.40;;
68583;SDS011;55557;49.220;11.150;2023-02-05T14:38:30;5.80;;;4.20;;
68583;SDS011;55557;49.220;11.150;2023-02-05T14:41:01;4.80;;;3.40;;
68583;SDS011;55557;49.220;11.150;2023-02-05T14:43:31;6.97;;;5.60;;
68583;SDS011;55557;49.220;11.150;2023-02-05T14:46:01;9.00;;;4.10;;
68583;SDS011;55557;49.220;11.150;2023-02-05T14:48:29;4.33;;;3.93;;
68583;SDS011;55557;49.220;11.150;2023-02-05T14:51:46;7.50;;;3.33;;
68583;SDS011;55557;49.220;11.150;2023-02-05T14:53:52;5.07;;;3.07;;
68583;SDS011;55557;49.220;11.150;2023-02-05T14:56:23;5.37;;;3.70;;
68583;SDS011;55557;49.220;11.150;2023-02-05T14:58:56;4.97;;;4.00;;
68583;SDS011;55557;49.220;11.150;2023-02-05T15:03:59;3.97;;;3.30;;
68583;SDS011;55557;49.220;11.150;2023-02-05T15:06:26;4.37;;;3.37;;
68583;SDS011;55557;49.220;11.150;2023-02-05T15:08:59;5.10;;;3.80;;
68583;SDS011;55557;49.220;11.150;2023-02-05T15:16:44;3.63;;;2.90;;
68583;SDS011;55557;49.220;11.150;2023-02-05T15:19:10;5.13;;;3.40;;
68583;SDS011;55557;49.220;11.150;2023-02-05T15:21:48;9.33;;;5.40;;
68583;SDS011;55557;49.220;11.150;2023-02-05T15:24:16;8.63;;;4.60;;
68583;SDS011;55557;49.220;11.150;2023-02-05T15:26:49;8.33;;;4.60;;
68583;SDS011;55557;49.220;11.150;2023-02-05T15:32:04;4.20;;;3.40;;
68583;SDS011;55557;49.220;11.150;2023-02-05T15:39:41;5.30;;;3.80;;
68583;SDS011;55557;49.220;11.150;2023-02-05T15:42:09;4.27;;;3.83;;
68583;SDS011;55557;49.220;11.150;2023-02-05T15:44:38;14.37;;;8.03;;
68583;SDS011;55557;49.220;11.150;2023-02-05T15:47:06;19.20;;;12.67;;
68583;SDS011;55557;49.220;11.150;2023-02-05T15:49:37;16.83;;;10.03;;
68583;SDS011;55557;49.220;11.150;2023-02-05T15:52:05;10.70;;;6.20;;
68583;SDS011;55557;49.220;11.150;2023-02-05T15:54:32;8.97;;;4.57;;
68583;SDS011;55557;49.220;11.150;2023-02-05T15:56:59;6.73;;;3.93;;
68583;SDS011;55557;49.220;11.150;2023-02-05T15:59:25;4.00;;;3.33;;
68583;SDS011;55557;49.220;11.150;2023-02-05T16:01:58;2.97;;;2.67;;
68583;SDS011;55557;49.220;11.150;2023-02-05T16:04:29;3.33;;;2.63;;
68583;SDS011;55557;49.220;11.150;2023-02-05T16:06:56;4.83;;;3.03;;
68583;SDS011;55557;49.220;11.150;2023-02-05T16:09:24;6.63;;;3.03;;
68583;SDS011;55557;49.220;11.150;2023-02-05T16:11:50;2.93;;;2.60;;
68583;SDS011;55557;49.220;11.150;2023-02-05T16:14:18;4.73;;;2.83;;
68583;SDS011;55557;49.220;11.150;2023-02-05T16:16:55;5.00;;;3.40;;
68583;SDS011;55557;49.220;11.150;2023-02-05T16:19:28;4.23;;;3.37;;
68583;SDS011;55557;49.220;11.150;2023-02-05T16:24:41;3.67;;;2.57;;
68583;SDS011;55557;49.220;11.150;2023-02-05T16:29:41;4.57;;;3.33;;
68583;SDS011;55557;49.220;11.150;2023-02-05T16:32:15;3.17;;;2.80;;
68583;SDS011;55557;49.220;11.150;2023-02-05T16:34:44;3.10;;;2.50;;
68583;SDS011;55557;49.220;11.150;2023-02-05T16:37:13;3.90;;;3.00;;
68583;SDS011;55557;49.220;11.150;2023-02-05T16:39:51;2.87;;;2.33;;
68583;SDS011;55557;49.220;11.150;2023-02-05T16:45:18;2.90;;;2.60;;
68583;SDS011;55557;49.220;11.150;2023-02-05T16:48:00;2.23;;;2.00;;
68583;SDS011;55557;49.220;11.150;2023-02-05T16:50:32;3.53;;;2.40;;
68583;SDS011;55557;49.220;11.150;2023-02-05T16:52:59;2.80;;;2.17;;
68583;SDS011;55557;49.220;11.150;2023-02-05T16:57:52;2.57;;;2.00;;
68583;SDS011;55557;49.220;11.150;2023-02-05T17:00:19;2.83;;;2.33;;
68583;SDS011;55557;49.220;11.150;2023-02-05T17:02:46;2.70;;;2.37;;
68583;SDS011;55557;49.220;11.150;2023-02-05T17:05:23;3.63;;;2.30;;
68583;SDS011;55557;49.220;11.150;2023-02-05T17:07:57;3.23;;;2.50;;